sensor_id;sensor_type;location;lat;lon;timestamp;P1;durP1;ratioP1;P2;durP2;ratioP2
59310;SDS011;45078;51.654;21.250;2023-07-22T00:02:22;10.57;;;8.18;;
59310;SDS011;45078;51.654;21.250;2023-07-22T00:04:48;11.95;;;8.70;;
59310;SDS011;45078;51.654;21.250;2023-07-22T00:07:15;10.10;;;8.70;;
59310;SDS011;45078;51.654;21.250;2023-07-22T00:09:41;12.15;;;8.52;;
59310;SDS011;45078;51.654;21.250;2023-07-22T00:12:08;10.50;;;8.55;;
59310;SDS011;45078;51.654;21.250;2023-07-22T00:14:38;11.10;;;8.75;;
59310;SDS011;45078;51.654;21.250;2023-07-22T00:17:05;8.23;;;7.32;;
59310;SDS011;45078;51.654;21.250;2023-07-22T00:19:31;9.10;;;6.88;;
59310;SDS011;45078;51.654;21.250;2023-07-22T00:21:56;10.98;;;6.38;;
59310;SDS011;45078;51.654;21.250;2023-07-22T00:24:22;10.77;;;7.03;;
59310;SDS011;45078;51.654;21.250;2023-07-22T00:26:48;8.88;;;6.68;;
59310;SDS011;45078;51.654;21.250;2023-07-22T00:29:15;8.40;;;6.95;;
59310;SDS011;45078;51.654;21.250;2023-07-22T00:31:41;10.15;;;8.07;;
59310;SDS011;45078;51.654;21.250;2023-07-22T00:34:07;10.80;;;7.93;;
59310;SDS011;45078;51.654;21.250;2023-07-22T00:36:34;11.02;;;7.88;;
59310;SDS011;45078;51.654;21.250;2023-07-22T00:39:00;11.18;;;8.38;;
59310;SDS011;45078;51.654;21.250;2023-07-22T00:41:26;12.82;;;8.23;;
59310;SDS011;45078;51.654;21.250;2023-07-22T00:43:54;14.23;;;7.70;;
59310;SDS011;45078;51.654;21.250;2023-07-22T00:46:20;11.52;;;7.90;;
59310;SDS011;45078;51.654;21.250;2023-07-22T00:48:46;10.02;;;7.22;;
59310;SDS011;45078;51.654;21.250;2023-07-22T00:51:13;9.63;;;7.32;;
59310;SDS011;45078;51.654;21.250;2023-07-22T00:53:39;9.32;;;7.20;;
59310;SDS011;45078;51.654;21.250;2023-07-22T00:56:05;11.13;;;7.60;;
59310;SDS011;45078;51.654;21.250;2023-07-22T00:58:31;12.75;;;6.90;;
59310;SDS011;45078;51.654;21.250;2023-07-22T01:00:58;10.35;;;6.75;;
59310;SDS011;45078;51.654;21.250;2023-07-22T01:03:24;9.60;;;7.65;;
59310;SDS011;45078;51.654;21.250;2023-07-22T01:05:50;8.25;;;7.03;;
59310;SDS011;45078;51.654;21.250;2023-07-22T01:08:18;10.40;;;7.47;;
59310;SDS011;45078;51.654;21.250;2023-07-22T01:10:44;11.80;;;6.80;;
59310;SDS011;45078;51.654;21.250;2023-07-22T01:13:09;9.10;;;7.00;;
59310;SDS011;45078;51.654;21.250;2023-07-22T01:15:35;10.48;;;7.40;;
59310;SDS011;45078;51.654;21.250;2023-07-22T01:18:02;10.45;;;7.18;;
59310;SDS011;45078;51.654;21.250;2023-07-22T01:20:29;9.35;;;7.18;;
59310;SDS011;45078;51.654;21.250;2023-07-22T01:22:55;8.73;;;7.47;;
59310;SDS011;45078;51.654;21.250;2023-07-22T01:25:22;9.20;;;7.78;;
59310;SDS011;45078;51.654;21.250;2023-07-22T01:27:51;12.55;;;7.15;;
59310;SDS011;45078;51.654;21.250;2023-07-22T01:30:17;10.73;;;8.27;;
59310;SDS011;45078;51.654;21.250;2023-07-22T01:32:44;11.43;;;8.20;;
59310;SDS011;45078;51.654;21.250;2023-07-22T01:35:10;10.00;;;8.52;;
59310;SDS011;45078;51.654;21.250;2023-07-22T01:37:36;14.00;;;8.38;;
59310;SDS011;45078;51.654;21.250;2023-07-22T01:40:02;14.00;;;8.55;;
59310;SDS011;45078;51.654;21.250;2023-07-22T01:42:41;12.60;;;9.02;;
59310;SDS011;45078;51.654;21.250;2023-07-22T01:45:08;11.75;;;9.10;;
59310;SDS011;45078;51.654;21.250;2023-07-22T01:47:35;11.05;;;8.50;;
59310;SDS011;45078;51.654;21.250;2023-07-22T01:50:04;12.73;;;8.73;;
59310;SDS011;45078;51.654;21.250;2023-07-22T01:52:33;12.77;;;8.75;;
59310;SDS011;45078;51.654;21.250;2023-07-22T01:54:59;10.65;;;8.00;;
59310;SDS011;45078;51.654;21.250;2023-07-22T01:57:25;11.85;;;8.40;;
59310;SDS011;45078;51.654;21.250;2023-07-22T01:59:51;12.50;;;8.57;;
59310;SDS011;45078;51.654;21.250;2023-07-22T02:02:16;11.10;;;8.82;;
59310;SDS011;45078;51.654;21.250;2023-07-22T02:04:42;11.18;;;8.65;;
59310;SDS011;45078;51.654;21.250;2023-07-22T02:07:08;11.40;;;7.78;;
59310;SDS011;45078;51.654;21.250;2023-07-22T02:09:34;11.95;;;8.93;;
59310;SDS011;45078;51.654;21.250;2023-07-22T02:12:00;10.32;;;8.20;;
59310;SDS011;45078;51.654;21.250;2023-07-22T02:14:25;10.45;;;8.35;;
59310;SDS011;45078;51.654;21.250;2023-07-22T02:16:51;11.73;;;7.88;;
59310;SDS011;45078;51.654;21.250;2023-07-22T02:19:17;11.57;;;8.48;;
59310;SDS011;45078;51.654;21.250;2023-07-22T02:21:42;11.20;;;8.43;;
59310;SDS011;45078;51.654;21.250;2023-07-22T02:24:09;10.93;;;8.05;;
59310;SDS011;45078;51.654;21.250;2023-07-22T02:26:35;10.73;;;8.57;;
59310;SDS011;45078;51.654;21.250;2023-07-22T02:29:01;15.77;;;9.35;;
59310;SDS011;45078;51.654;21.250;2023-07-22T02:31:27;11.70;;;8.70;;
59310;SDS011;45078;51.654;21.250;2023-07-22T02:33:53;13.98;;;9.13;;
59310;SDS011;45078;51.654;21.250;2023-07-22T02:36:19;13.93;;;8.43;;
59310;SDS011;45078;51.654;21.250;2023-07-22T02:38:44;13.85;;;8.73;;
59310;SDS011;45078;51.654;21.250;2023-07-22T02:41:10;12.55;;;8.35;;
59310;SDS011;45078;51.654;21.250;2023-07-22T02:43:36;14.43;;;8.77;;
59310;SDS011;45078;51.654;21.250;2023-07-22T02:46:02;13.73;;;9.02;;
59310;SDS011;45078;51.654;21.250;2023-07-22T02:48:30;12.13;;;9.15;;
59310;SDS011;45078;51.654;21.250;2023-07-22T02:51:01;14.20;;;8.90;;
59310;SDS011;45078;51.654;21.250;2023-07-22T02:53:34;13.60;;;9.55;;
59310;SDS011;45078;51.654;21.250;2023-07-22T02:56:06;14.00;;;8.95;;
59310;SDS011;45078;51.654;21.250;2023-07-22T02:58:33;11.38;;;8.30;;
59310;SDS011;45078;51.654;21.250;2023-07-22T03:00:59;11.80;;;8.90;;
59310;SDS011;45078;51.654;21.250;2023-07-22T03:03:25;10.10;;;8.20;;
59310;SDS011;45078;51.654;21.250;2023-07-22T03:05:51;11.65;;;8.38;;
59310;SDS011;45078;51.654;21.250;2023-07-22T03:08:17;12.00;;;8.15;;
59310;SDS011;45078;51.654;21.250;2023-07-22T03:10:43;13.60;;;8.02;;
59310;SDS011;45078;51.654;21.250;2023-07-22T03:13:14;11.15;;;8.57;;
59310;SDS011;45078;51.654;21.250;2023-07-22T03:15:41;11.43;;;8.38;;
59310;SDS011;45078;51.654;21.250;2023-07-22T03:18:07;12.35;;;8.27;;
59310;SDS011;45078;51.654;21.250;2023-07-22T03:20:35;9.13;;;7.55;;
59310;SDS011;45078;51.654;21.250;2023-07-22T03:23:02;11.93;;;7.95;;
59310;SDS011;45078;51.654;21.250;2023-07-22T03:25:28;13.30;;;8.02;;
59310;SDS011;45078;51.654;21.250;2023-07-22T03:27:53;10.93;;;8.00;;
59310;SDS011;45078;51.654;21.250;2023-07-22T03:30:21;11.95;;;7.40;;
59310;SDS011;45078;51.654;21.250;2023-07-22T03:32:48;8.57;;;6.82;;
59310;SDS011;45078;51.654;21.250;2023-07-22T03:35:16;9.82;;;7.75;;
59310;SDS011;45078;51.654;21.250;2023-07-22T03:37:42;10.32;;;7.88;;
59310;SDS011;45078;51.654;21.250;2023-07-22T03:40:08;11.32;;;8.10;;
59310;SDS011;45078;51.654;21.250;2023-07-22T03:43:01;10.68;;;7.97;;
59310;SDS011;45078;51.654;21.250;2023-07-22T03:45:27;11.50;;;7.78;;
59310;SDS011;45078;51.654;21.250;2023-07-22T03:47:55;10.15;;;7.60;;
59310;SDS011;45078;51.654;21.250;2023-07-22T03:50:22;12.18;;;7.60;;
59310;SDS011;45078;51.654;21.250;2023-07-22T03:52:48;8.95;;;7.30;;
59310;SDS011;45078;51.654;21.250;2023-07-22T03:55:14;10.68;;;7.60;;
59310;SDS011;45078;51.654;21.250;2023-07-22T03:57:40;9.00;;;7.00;;
59310;SDS011;45078;51.654;21.250;2023-07-22T04:00:06;11.30;;;6.70;;
59310;SDS011;45078;51.654;21.250;2023-07-22T04:02:35;11.43;;;7.07;;
59310;SDS011;45078;51.654;21.250;2023-07-22T04:05:02;11.85;;;6.90;;
59310;SDS011;45078;51.654;21.250;2023-07-22T04:07:28;7.78;;;6.90;;
59310;SDS011;45078;51.654;21.250;2023-07-22T04:09:54;8.95;;;7.30;;
59310;SDS011;45078;51.654;21.250;2023-07-22T04:12:19;9.70;;;7.38;;
59310;SDS011;45078;51.654;21.250;2023-07-22T04:14:45;10.07;;;7.68;;
59310;SDS011;45078;51.654;21.250;2023-07-22T04:17:11;11.40;;;7.65;;
59310;SDS011;45078;51.654;21.250;2023-07-22T04:19:36;10.50;;;7.28;;
59310;SDS011;45078;51.654;21.250;2023-07-22T04:22:02;9.35;;;6.50;;
59310;SDS011;45078;51.654;21.250;2023-07-22T04:24:32;10.40;;;7.38;;
59310;SDS011;45078;51.654;21.250;2023-07-22T04:26:58;10.88;;;7.68;;
59310;SDS011;45078;51.654;21.250;2023-07-22T04:29:24;10.45;;;7.57;;
59310;SDS011;45078;51.654;21.250;2023-07-22T04:31:50;13.48;;;7.78;;
59310;SDS011;45078;51.654;21.250;2023-07-22T04:34:16;10.50;;;7.35;;
59310;SDS011;45078;51.654;21.250;2023-07-22T04:36:42;11.57;;;7.70;;
59310;SDS011;45078;51.654;21.250;2023-07-22T04:39:08;10.32;;;7.38;;
59310;SDS011;45078;51.654;21.250;2023-07-22T04:41:34;27.70;;;8.15;;
59310;SDS011;45078;51.654;21.250;2023-07-22T04:44:00;9.68;;;7.03;;
59310;SDS011;45078;51.654;21.250;2023-07-22T04:46:26;10.25;;;6.68;;
59310;SDS011;45078;51.654;21.250;2023-07-22T04:48:55;13.30;;;7.00;;
59310;SDS011;45078;51.654;21.250;2023-07-22T04:51:23;10.40;;;6.43;;
59310;SDS011;45078;51.654;21.250;2023-07-22T04:53:48;8.57;;;6.10;;
59310;SDS011;45078;51.654;21.250;2023-07-22T04:56:14;8.68;;;6.15;;
59310;SDS011;45078;51.654;21.250;2023-07-22T04:58:41;9.68;;;5.88;;
59310;SDS011;45078;51.654;21.250;2023-07-22T05:01:06;8.20;;;6.07;;
59310;SDS011;45078;51.654;21.250;2023-07-22T05:03:33;7.32;;;5.22;;
59310;SDS011;45078;51.654;21.250;2023-07-22T05:06:00;9.68;;;5.65;;
59310;SDS011;45078;51.654;21.250;2023-07-22T05:08:26;8.93;;;4.38;;
59310;SDS011;45078;51.654;21.250;2023-07-22T05:10:52;9.25;;;5.03;;
59310;SDS011;45078;51.654;21.250;2023-07-22T05:13:18;8.85;;;4.80;;
59310;SDS011;45078;51.654;21.250;2023-07-22T05:15:44;7.53;;;5.00;;
59310;SDS011;45078;51.654;21.250;2023-07-22T05:18:10;7.32;;;5.00;;
59310;SDS011;45078;51.654;21.250;2023-07-22T05:20:37;7.10;;;4.88;;
59310;SDS011;45078;51.654;21.250;2023-07-22T05:23:04;6.40;;;4.82;;
59310;SDS011;45078;51.654;21.250;2023-07-22T05:25:30;6.63;;;4.75;;
59310;SDS011;45078;51.654;21.250;2023-07-22T05:27:55;5.78;;;4.50;;
59310;SDS011;45078;51.654;21.250;2023-07-22T05:30:21;6.10;;;4.60;;
59310;SDS011;45078;51.654;21.250;2023-07-22T05:32:47;6.68;;;4.28;;
59310;SDS011;45078;51.654;21.250;2023-07-22T05:35:12;5.47;;;3.97;;
59310;SDS011;45078;51.654;21.250;2023-07-22T05:37:38;4.88;;;3.92;;
59310;SDS011;45078;51.654;21.250;2023-07-22T05:40:04;9.30;;;4.15;;
59310;SDS011;45078;51.654;21.250;2023-07-22T05:42:32;5.57;;;4.30;;
59310;SDS011;45078;51.654;21.250;2023-07-22T05:44:58;6.53;;;3.40;;
59310;SDS011;45078;51.654;21.250;2023-07-22T05:47:25;7.32;;;4.25;;
59310;SDS011;45078;51.654;21.250;2023-07-22T05:49:51;4.80;;;3.60;;
59310;SDS011;45078;51.654;21.250;2023-07-22T05:52:16;6.97;;;3.63;;
59310;SDS011;45078;51.654;21.250;2023-07-22T05:54:42;5.68;;;3.92;;
59310;SDS011;45078;51.654;21.250;2023-07-22T05:57:08;7.40;;;3.15;;
59310;SDS011;45078;51.654;21.250;2023-07-22T05:59:34;6.95;;;3.42;;
59310;SDS011;45078;51.654;21.250;2023-07-22T06:02:01;5.28;;;3.58;;
59310;SDS011;45078;51.654;21.250;2023-07-22T06:04:28;3.83;;;3.10;;
59310;SDS011;45078;51.654;21.250;2023-07-22T06:06:54;5.95;;;3.47;;
59310;SDS011;45078;51.654;21.250;2023-07-22T06:21:43;6.28;;;4.63;;
59310;SDS011;45078;51.654;21.250;2023-07-22T06:24:09;8.13;;;5.45;;
59310;SDS011;45078;51.654;21.250;2023-07-22T06:26:35;7.13;;;4.70;;
59310;SDS011;45078;51.654;21.250;2023-07-22T06:29:01;8.77;;;5.18;;
59310;SDS011;45078;51.654;21.250;2023-07-22T06:31:27;5.97;;;4.35;;
59310;SDS011;45078;51.654;21.250;2023-07-22T06:33:56;6.78;;;4.38;;
59310;SDS011;45078;51.654;21.250;2023-07-22T06:36:22;5.60;;;4.40;;
59310;SDS011;45078;51.654;21.250;2023-07-22T06:38:49;8.93;;;4.32;;
59310;SDS011;45078;51.654;21.250;2023-07-22T06:41:15;4.03;;;3.10;;
59310;SDS011;45078;51.654;21.250;2023-07-22T06:43:41;3.70;;;2.72;;
59310;SDS011;45078;51.654;21.250;2023-07-22T06:46:06;4.63;;;2.58;;
59310;SDS011;45078;51.654;21.250;2023-07-22T06:48:32;3.72;;;2.60;;
59310;SDS011;45078;51.654;21.250;2023-07-22T06:50:58;3.78;;;2.15;;
59310;SDS011;45078;51.654;21.250;2023-07-22T06:53:23;3.03;;;2.08;;
59310;SDS011;45078;51.654;21.250;2023-07-22T06:55:50;3.47;;;2.00;;
59310;SDS011;45078;51.654;21.250;2023-07-22T06:58:21;2.40;;;1.90;;
59310;SDS011;45078;51.654;21.250;2023-07-22T07:00:48;3.92;;;1.80;;
59310;SDS011;45078;51.654;21.250;2023-07-22T07:03:17;2.60;;;1.92;;
59310;SDS011;45078;51.654;21.250;2023-07-22T07:05:43;3.10;;;2.25;;
59310;SDS011;45078;51.654;21.250;2023-07-22T07:08:09;2.65;;;2.10;;
59310;SDS011;45078;51.654;21.250;2023-07-22T07:10:38;3.05;;;2.05;;
59310;SDS011;45078;51.654;21.250;2023-07-22T07:13:07;3.90;;;1.95;;
59310;SDS011;45078;51.654;21.250;2023-07-22T07:15:34;2.63;;;1.85;;
59310;SDS011;45078;51.654;21.250;2023-07-22T07:18:00;2.15;;;1.85;;
59310;SDS011;45078;51.654;21.250;2023-07-22T07:20:25;3.65;;;2.20;;
59310;SDS011;45078;51.654;21.250;2023-07-22T07:22:51;2.50;;;1.77;;
59310;SDS011;45078;51.654;21.250;2023-07-22T07:25:17;2.60;;;1.83;;
59310;SDS011;45078;51.654;21.250;2023-07-22T07:27:43;4.63;;;1.90;;
59310;SDS011;45078;51.654;21.250;2023-07-22T07:30:08;3.80;;;2.10;;
59310;SDS011;45078;51.654;21.250;2023-07-22T07:32:35;1.98;;;1.60;;
59310;SDS011;45078;51.654;21.250;2023-07-22T07:35:01;4.38;;;2.85;;
59310;SDS011;45078;51.654;21.250;2023-07-22T07:37:29;2.78;;;2.00;;
59310;SDS011;45078;51.654;21.250;2023-07-22T07:39:55;2.05;;;1.70;;
59310;SDS011;45078;51.654;21.250;2023-07-22T07:42:26;4.25;;;1.90;;
59310;SDS011;45078;51.654;21.250;2023-07-22T07:44:52;6.30;;;2.53;;
59310;SDS011;45078;51.654;21.250;2023-07-22T07:47:18;2.80;;;1.90;;
59310;SDS011;45078;51.654;21.250;2023-07-22T07:49:43;3.13;;;2.22;;
59310;SDS011;45078;51.654;21.250;2023-07-22T07:52:10;5.45;;;2.75;;
59310;SDS011;45078;51.654;21.250;2023-07-22T07:54:36;4.45;;;2.20;;
59310;SDS011;45078;51.654;21.250;2023-07-22T07:57:01;3.65;;;2.17;;
59310;SDS011;45078;51.654;21.250;2023-07-22T07:59:27;6.20;;;2.10;;
59310;SDS011;45078;51.654;21.250;2023-07-22T08:01:53;7.22;;;2.40;;
59310;SDS011;45078;51.654;21.250;2023-07-22T08:04:19;2.15;;;1.67;;
59310;SDS011;45078;51.654;21.250;2023-07-22T08:06:44;3.85;;;2.08;;
59310;SDS011;45078;51.654;21.250;2023-07-22T08:09:10;3.05;;;2.10;;
59310;SDS011;45078;51.654;21.250;2023-07-22T08:11:41;3.42;;;2.10;;
59310;SDS011;45078;51.654;21.250;2023-07-22T08:14:07;3.35;;;1.88;;
59310;SDS011;45078;51.654;21.250;2023-07-22T08:16:33;3.33;;;2.10;;
59310;SDS011;45078;51.654;21.250;2023-07-22T08:18:58;3.03;;;1.98;;
59310;SDS011;45078;51.654;21.250;2023-07-22T08:21:24;4.40;;;2.13;;
59310;SDS011;45078;51.654;21.250;2023-07-22T08:23:50;3.30;;;2.35;;
59310;SDS011;45078;51.654;21.250;2023-07-22T08:26:16;3.70;;;2.30;;
59310;SDS011;45078;51.654;21.250;2023-07-22T08:28:46;6.18;;;2.00;;
59310;SDS011;45078;51.654;21.250;2023-07-22T08:31:12;2.80;;;2.17;;
59310;SDS011;45078;51.654;21.250;2023-07-22T08:33:38;4.10;;;2.10;;
59310;SDS011;45078;51.654;21.250;2023-07-22T08:36:03;3.10;;;2.03;;
59310;SDS011;45078;51.654;21.250;2023-07-22T08:38:30;4.97;;;2.13;;
59310;SDS011;45078;51.654;21.250;2023-07-22T08:40:56;4.75;;;2.47;;
59310;SDS011;45078;51.654;21.250;2023-07-22T08:43:22;4.32;;;2.38;;
59310;SDS011;45078;51.654;21.250;2023-07-22T08:45:49;4.00;;;2.22;;
59310;SDS011;45078;51.654;21.250;2023-07-22T08:48:16;4.57;;;2.15;;
59310;SDS011;45078;51.654;21.250;2023-07-22T08:53:24;3.40;;;2.40;;
59310;SDS011;45078;51.654;21.250;2023-07-22T08:55:51;3.80;;;3.00;;
59310;SDS011;45078;51.654;21.250;2023-07-22T08:58:18;4.35;;;2.65;;
59310;SDS011;45078;51.654;21.250;2023-07-22T09:00:44;3.60;;;2.70;;
59310;SDS011;45078;51.654;21.250;2023-07-22T09:03:10;3.42;;;2.60;;
59310;SDS011;45078;51.654;21.250;2023-07-22T09:05:36;4.10;;;2.15;;
59310;SDS011;45078;51.654;21.250;2023-07-22T09:08:04;4.65;;;2.55;;
59310;SDS011;45078;51.654;21.250;2023-07-22T09:13:06;3.15;;;2.20;;
59310;SDS011;45078;51.654;21.250;2023-07-22T09:15:36;5.60;;;2.67;;
59310;SDS011;45078;51.654;21.250;2023-07-22T09:18:05;4.00;;;2.30;;
59310;SDS011;45078;51.654;21.250;2023-07-22T09:20:31;4.40;;;2.40;;
59310;SDS011;45078;51.654;21.250;2023-07-22T09:22:58;3.53;;;2.33;;
59310;SDS011;45078;51.654;21.250;2023-07-22T09:25:26;3.63;;;2.50;;
59310;SDS011;45078;51.654;21.250;2023-07-22T09:27:53;7.90;;;2.50;;
59310;SDS011;45078;51.654;21.250;2023-07-22T09:33:06;3.40;;;2.00;;
59310;SDS011;45078;51.654;21.250;2023-07-22T09:35:45;6.57;;;2.22;;
59310;SDS011;45078;51.654;21.250;2023-07-22T09:38:14;6.78;;;2.30;;
59310;SDS011;45078;51.654;21.250;2023-07-22T09:40:47;4.00;;;2.30;;
59310;SDS011;45078;51.654;21.250;2023-07-22T09:43:12;4.28;;;2.65;;
59310;SDS011;45078;51.654;21.250;2023-07-22T09:45:38;4.03;;;2.42;;
59310;SDS011;45078;51.654;21.250;2023-07-22T09:48:04;3.63;;;2.30;;
59310;SDS011;45078;51.654;21.250;2023-07-22T09:50:31;3.92;;;2.00;;
59310;SDS011;45078;51.654;21.250;2023-07-22T09:52:57;2.47;;;1.80;;
59310;SDS011;45078;51.654;21.250;2023-07-22T09:55:28;2.63;;;1.80;;
59310;SDS011;45078;51.654;21.250;2023-07-22T09:57:55;2.65;;;1.60;;
59310;SDS011;45078;51.654;21.250;2023-07-22T10:00:25;2.17;;;1.55;;
59310;SDS011;45078;51.654;21.250;2023-07-22T10:02:55;1.90;;;1.15;;
59310;SDS011;45078;51.654;21.250;2023-07-22T10:05:22;2.45;;;1.60;;
59310;SDS011;45078;51.654;21.250;2023-07-22T10:07:50;5.60;;;1.40;;
59310;SDS011;45078;51.654;21.250;2023-07-22T10:10:24;4.45;;;1.70;;
59310;SDS011;45078;51.654;21.250;2023-07-22T10:12:52;3.53;;;1.40;;
59310;SDS011;45078;51.654;21.250;2023-07-22T10:15:19;2.20;;;1.40;;
59310;SDS011;45078;51.654;21.250;2023-07-22T10:17:45;1.58;;;1.30;;
59310;SDS011;45078;51.654;21.250;2023-07-22T10:20:11;2.72;;;1.83;;
59310;SDS011;45078;51.654;21.250;2023-07-22T10:22:44;4.13;;;1.83;;
59310;SDS011;45078;51.654;21.250;2023-07-22T10:25:11;3.25;;;1.80;;
59310;SDS011;45078;51.654;21.250;2023-07-22T10:27:40;2.65;;;1.63;;
59310;SDS011;45078;51.654;21.250;2023-07-22T10:30:11;2.03;;;1.50;;
59310;SDS011;45078;51.654;21.250;2023-07-22T10:32:41;2.40;;;1.30;;
59310;SDS011;45078;51.654;21.250;2023-07-22T10:35:13;1.52;;;1.10;;
59310;SDS011;45078;51.654;21.250;2023-07-22T10:37:48;2.28;;;1.40;;
59310;SDS011;45078;51.654;21.250;2023-07-22T10:40:29;3.40;;;1.75;;
59310;SDS011;45078;51.654;21.250;2023-07-22T10:42:59;2.75;;;1.77;;
59310;SDS011;45078;51.654;21.250;2023-07-22T10:50:46;2.28;;;1.73;;
59310;SDS011;45078;51.654;21.250;2023-07-22T11:01:23;2.40;;;1.60;;
59310;SDS011;45078;51.654;21.250;2023-07-22T11:06:56;3.25;;;1.45;;
59310;SDS011;45078;51.654;21.250;2023-07-22T11:11:58;2.13;;;1.42;;
59310;SDS011;45078;51.654;21.250;2023-07-22T11:14:27;4.50;;;1.40;;
59310;SDS011;45078;51.654;21.250;2023-07-22T11:16:56;2.90;;;1.50;;
59310;SDS011;45078;51.654;21.250;2023-07-22T11:19:24;3.53;;;1.60;;
59310;SDS011;45078;51.654;21.250;2023-07-22T11:21:54;5.35;;;1.50;;
59310;SDS011;45078;51.654;21.250;2023-07-22T11:24:20;2.55;;;1.50;;
59310;SDS011;45078;51.654;21.250;2023-07-22T11:26:47;2.92;;;1.60;;
59310;SDS011;45078;51.654;21.250;2023-07-22T11:29:14;2.80;;;1.58;;
59310;SDS011;45078;51.654;21.250;2023-07-22T11:31:41;2.67;;;1.60;;
59310;SDS011;45078;51.654;21.250;2023-07-22T11:34:12;4.97;;;1.55;;
59310;SDS011;45078;51.654;21.250;2023-07-22T11:36:39;2.30;;;1.48;;
59310;SDS011;45078;51.654;21.250;2023-07-22T11:39:06;2.53;;;1.55;;
59310;SDS011;45078;51.654;21.250;2023-07-22T11:41:33;4.18;;;1.73;;
59310;SDS011;45078;51.654;21.250;2023-07-22T11:44:00;2.33;;;1.50;;
59310;SDS011;45078;51.654;21.250;2023-07-22T11:46:27;2.45;;;1.67;;
59310;SDS011;45078;51.654;21.250;2023-07-22T11:48:54;4.25;;;1.63;;
59310;SDS011;45078;51.654;21.250;2023-07-22T11:51:22;3.30;;;1.90;;
59310;SDS011;45078;51.654;21.250;2023-07-22T11:53:53;3.45;;;1.60;;
59310;SDS011;45078;51.654;21.250;2023-07-22T11:56:28;6.38;;;1.88;;
59310;SDS011;45078;51.654;21.250;2023-07-22T11:59:07;2.90;;;1.98;;
59310;SDS011;45078;51.654;21.250;2023-07-22T12:01:33;2.53;;;1.58;;
59310;SDS011;45078;51.654;21.250;2023-07-22T12:03:59;2.22;;;1.80;;
59310;SDS011;45078;51.654;21.250;2023-07-22T12:06:26;3.25;;;1.83;;
59310;SDS011;45078;51.654;21.250;2023-07-22T12:08:52;2.65;;;1.60;;
59310;SDS011;45078;51.654;21.250;2023-07-22T12:13:45;3.97;;;1.80;;
59310;SDS011;45078;51.654;21.250;2023-07-22T12:16:20;2.58;;;1.90;;
59310;SDS011;45078;51.654;21.250;2023-07-22T12:18:49;2.78;;;1.92;;
59310;SDS011;45078;51.654;21.250;2023-07-22T12:21:15;4.40;;;1.80;;
59310;SDS011;45078;51.654;21.250;2023-07-22T12:23:41;5.18;;;1.70;;
59310;SDS011;45078;51.654;21.250;2023-07-22T12:26:07;3.13;;;2.10;;
59310;SDS011;45078;51.654;21.250;2023-07-22T12:28:33;3.58;;;2.10;;
59310;SDS011;45078;51.654;21.250;2023-07-22T12:30:59;2.95;;;2.10;;
59310;SDS011;45078;51.654;21.250;2023-07-22T12:33:25;2.90;;;1.80;;
59310;SDS011;45078;51.654;21.250;2023-07-22T12:35:53;2.30;;;1.65;;
59310;SDS011;45078;51.654;21.250;2023-07-22T12:38:19;3.50;;;1.90;;
59310;SDS011;45078;51.654;21.250;2023-07-22T12:40:45;2.42;;;1.80;;
59310;SDS011;45078;51.654;21.250;2023-07-22T12:43:11;3.05;;;1.90;;
59310;SDS011;45078;51.654;21.250;2023-07-22T12:45:37;4.25;;;2.20;;
59310;SDS011;45078;51.654;21.250;2023-07-22T12:48:02;4.57;;;2.25;;
59310;SDS011;45078;51.654;21.250;2023-07-22T12:50:30;3.00;;;2.10;;
59310;SDS011;45078;51.654;21.250;2023-07-22T12:52:57;3.50;;;2.00;;
59310;SDS011;45078;51.654;21.250;2023-07-22T12:55:23;2.60;;;2.00;;
59310;SDS011;45078;51.654;21.250;2023-07-22T12:57:49;2.72;;;2.03;;
59310;SDS011;45078;51.654;21.250;2023-07-22T13:00:15;3.78;;;1.70;;
59310;SDS011;45078;51.654;21.250;2023-07-22T13:02:41;3.45;;;1.90;;
59310;SDS011;45078;51.654;21.250;2023-07-22T13:05:07;4.05;;;2.00;;
59310;SDS011;45078;51.654;21.250;2023-07-22T13:07:33;3.55;;;1.90;;
59310;SDS011;45078;51.654;21.250;2023-07-22T13:09:59;3.50;;;1.95;;
59310;SDS011;45078;51.654;21.250;2023-07-22T13:12:27;4.47;;;1.90;;
59310;SDS011;45078;51.654;21.250;2023-07-22T13:14:53;2.88;;;1.88;;
59310;SDS011;45078;51.654;21.250;2023-07-22T13:17:19;3.70;;;2.10;;
59310;SDS011;45078;51.654;21.250;2023-07-22T13:19:45;3.50;;;1.85;;
59310;SDS011;45078;51.654;21.250;2023-07-22T13:22:14;4.22;;;2.17;;
59310;SDS011;45078;51.654;21.250;2023-07-22T13:24:40;3.80;;;1.90;;
59310;SDS011;45078;51.654;21.250;2023-07-22T13:27:06;3.08;;;1.90;;
59310;SDS011;45078;51.654;21.250;2023-07-22T13:29:32;5.15;;;1.98;;
59310;SDS011;45078;51.654;21.250;2023-07-22T13:31:58;5.25;;;1.90;;
59310;SDS011;45078;51.654;21.250;2023-07-22T13:34:24;3.42;;;2.05;;
59310;SDS011;45078;51.654;21.250;2023-07-22T13:36:50;3.20;;;1.95;;
59310;SDS011;45078;51.654;21.250;2023-07-22T13:39:16;2.55;;;1.75;;
59310;SDS011;45078;51.654;21.250;2023-07-22T13:41:42;2.35;;;1.80;;
59310;SDS011;45078;51.654;21.250;2023-07-22T13:44:08;2.90;;;2.10;;
59310;SDS011;45078;51.654;21.250;2023-07-22T13:46:34;3.65;;;2.15;;
59310;SDS011;45078;51.654;21.250;2023-07-22T13:49:00;3.75;;;1.65;;
59310;SDS011;45078;51.654;21.250;2023-07-22T13:51:25;3.28;;;1.52;;
59310;SDS011;45078;51.654;21.250;2023-07-22T13:53:51;2.50;;;1.50;;
59310;SDS011;45078;51.654;21.250;2023-07-22T13:56:17;3.63;;;2.10;;
59310;SDS011;45078;51.654;21.250;2023-07-22T13:58:43;2.67;;;1.75;;
59310;SDS011;45078;51.654;21.250;2023-07-22T14:01:09;5.97;;;1.67;;
59310;SDS011;45078;51.654;21.250;2023-07-22T14:03:34;2.92;;;1.85;;
59310;SDS011;45078;51.654;21.250;2023-07-22T14:06:00;4.65;;;1.92;;
59310;SDS011;45078;51.654;21.250;2023-07-22T14:08:26;2.50;;;1.83;;
59310;SDS011;45078;51.654;21.250;2023-07-22T14:10:52;5.15;;;2.20;;
59310;SDS011;45078;51.654;21.250;2023-07-22T14:13:18;5.43;;;2.13;;
59310;SDS011;45078;51.654;21.250;2023-07-22T14:15:44;3.45;;;1.92;;
59310;SDS011;45078;51.654;21.250;2023-07-22T14:18:09;2.50;;;1.80;;
59310;SDS011;45078;51.654;21.250;2023-07-22T14:20:35;4.07;;;2.40;;
59310;SDS011;45078;51.654;21.250;2023-07-22T14:23:01;2.58;;;2.10;;
59310;SDS011;45078;51.654;21.250;2023-07-22T14:25:28;3.58;;;2.20;;
59310;SDS011;45078;51.654;21.250;2023-07-22T14:27:54;3.85;;;2.13;;
59310;SDS011;45078;51.654;21.250;2023-07-22T14:30:19;8.40;;;2.22;;
59310;SDS011;45078;51.654;21.250;2023-07-22T14:32:45;5.25;;;2.50;;
59310;SDS011;45078;51.654;21.250;2023-07-22T14:35:11;4.28;;;2.10;;
59310;SDS011;45078;51.654;21.250;2023-07-22T14:37:37;5.85;;;2.10;;
59310;SDS011;45078;51.654;21.250;2023-07-22T14:40:03;2.40;;;2.00;;
59310;SDS011;45078;51.654;21.250;2023-07-22T14:42:30;3.92;;;2.20;;
59310;SDS011;45078;51.654;21.250;2023-07-22T14:44:55;3.00;;;2.00;;
59310;SDS011;45078;51.654;21.250;2023-07-22T14:47:21;6.57;;;3.25;;
59310;SDS011;45078;51.654;21.250;2023-07-22T14:49:47;2.85;;;2.20;;
59310;SDS011;45078;51.654;21.250;2023-07-22T14:52:13;3.88;;;2.20;;
59310;SDS011;45078;51.654;21.250;2023-07-22T14:54:39;3.03;;;2.40;;
59310;SDS011;45078;51.654;21.250;2023-07-22T14:57:04;3.95;;;2.63;;
59310;SDS011;45078;51.654;21.250;2023-07-22T14:59:30;3.38;;;2.10;;
59310;SDS011;45078;51.654;21.250;2023-07-22T15:01:56;4.15;;;2.03;;
59310;SDS011;45078;51.654;21.250;2023-07-22T15:04:23;3.65;;;2.35;;
59310;SDS011;45078;51.654;21.250;2023-07-22T15:06:49;3.88;;;2.30;;
59310;SDS011;45078;51.654;21.250;2023-07-22T15:09:15;3.97;;;2.15;;
59310;SDS011;45078;51.654;21.250;2023-07-22T15:11:41;2.63;;;2.22;;